Time;durP1;ratioP1;P1;durP2;ratioP2;P2;SDS_P1;SDS_P2;PMS_P1;PMS_P2;Temp;Humidity;BMP_temperature;BMP_pressure;BME280_temperature;BME280_humidity;BME280_pressure;Samples;Min_cycle;Max_cycle;Signal;HPM_P1;HPM_P2
2023/08/19 00:01:05;;;;;;;14.10;6.00;;;;;;;21.83;63.48;100004.64;107384;1259;60364;-38
2023/08/19 00:03:33;;;;;;;8.60;6.60;;;;;;;21.84;63.47;100000.52;107381;1254;60293;-39
2023/08/19 00:06:06;;;;;;;8.00;6.50;;;;;;;21.84;63.50;99996.72;107338;1254;73870;-38
2023/08/19 00:08:34;;;;;;;10.60;6.10;;;;;;;21.84;63.35;99997.27;107392;1254;66443;-38
2023/08/19 00:11:02;;;;;;;9.90;6.70;;;;;;;21.84;63.14;99999.80;107419;1254;72715;-38
2023/08/19 00:13:30;;;;;;;11.60;6.40;;;;;;;21.84;63.35;99996.27;107385;1259;60372;-39
2023/08/19 00:15:58;;;;;;;13.00;6.60;;;;;;;21.83;63.36;99995.66;107509;1254;59610;-38
2023/08/19 00:18:25;;;;;;;9.50;6.30;;;;;;;21.81;63.40;99996.23;107436;1254;73899;-39
2023/08/19 00:20:53;;;;;;;9.00;6.60;;;;;;;21.80;63.64;99992.63;107367;1254;66501;-39
2023/08/19 00:23:23;;;;;;;12.80;6.00;;;;;;;21.82;63.72;99994.80;107307;1259;72698;-38
2023/08/19 00:25:50;;;;;;;;;;;;;;;21.87;63.73;99995.98;107379;1254;59580;-38
2023/08/19 00:28:18;;;;;;;11.40;6.70;;;;;;;21.87;63.71;99998.27;107362;1256;60300;-39
2023/08/19 00:30:46;;;;;;;8.60;6.70;;;;;;;21.84;63.94;100005.24;107362;1254;72516;-39
2023/08/19 00:33:13;;;;;;;9.60;6.60;;;;;;;21.82;63.91;100002.45;107342;1254;66379;-38
2023/08/19 00:35:42;;;;;;;8.90;6.40;;;;;;;21.81;63.87;100004.52;107390;1254;72693;-38
2023/08/19 00:38:09;;;;;;;11.20;6.20;;;;;;;21.79;63.82;100000.36;107355;1257;61072;-38
2023/08/19 00:40:37;;;;;;;9.70;6.50;;;;;;;21.77;63.96;99995.36;107345;1254;60454;-39
2023/08/19 00:43:05;;;;;;;8.00;6.90;;;;;;;21.74;64.18;99996.74;107363;1254;73872;-39
2023/08/19 00:45:33;;;;;;;10.70;6.30;;;;;;;21.70;64.17;99998.47;107333;1254;67621;-38
2023/08/19 00:48:02;;;;;;;11.90;6.00;;;;;;;21.70;64.22;99996.33;107316;1257;71413;-38
2023/08/19 00:50:30;;;;;;;;;;;;;;;21.73;64.22;99995.98;107395;1254;60396;-38
2023/08/19 00:52:58;;;;;;;9.50;6.10;;;;;;;21.71;64.39;99991.36;107377;1254;60415;-39
2023/08/19 00:55:25;;;;;;;9.20;6.30;;;;;;;21.67;64.41;99992.69;107309;1254;73824;-39
2023/08/19 00:57:53;;;;;;;8.60;6.90;;;;;;;21.63;64.19;99990.47;107323;1254;67722;-39
2023/08/19 01:00:20;;;;;;;10.50;7.10;;;;;;;21.60;64.32;99988.85;107108;1254;71373;-38
2023/08/19 01:02:48;;;;;;;10.00;6.40;;;;;;;21.57;64.62;99987.25;107220;1254;60590;-38
2023/08/19 01:05:16;;;;;;;9.00;6.60;;;;;;;21.53;64.79;99987.46;107340;1254;59665;-38
2023/08/19 01:07:50;;;;;;;7.10;6.20;;;;;;;21.49;64.83;99988.86;107317;1254;72694;-39
2023/08/19 01:10:38;;;;;;;11.30;6.30;;;;;;;21.51;64.99;99985.22;107323;1259;66543;-39
2023/08/19 01:13:06;;;;;;;8.50;6.50;;;;;;;21.53;65.13;99984.48;107234;1260;72691;-39
2023/08/19 01:15:36;;;;;;;8.70;6.80;;;;;;;21.52;65.17;99986.14;107230;1255;60453;-38
2023/08/19 01:18:04;;;;;;;10.30;6.30;;;;;;;21.49;65.20;99986.13;107211;1259;60887;-39
2023/08/19 01:20:34;;;;;;;8.00;6.50;;;;;;;21.47;65.75;99990.70;107233;1261;73852;-39
2023/08/19 01:23:36;;;;;;;9.20;6.30;;;;;;;21.45;66.28;99985.61;107323;1259;67575;-39
2023/08/19 01:26:04;;;;;;;8.80;6.30;;;;;;;21.42;66.78;99983.77;107240;1254;71457;-39
2023/08/19 01:28:32;;;;;;;6.80;5.70;;;;;;;21.45;67.04;99987.05;107193;1260;60770;-38
2023/08/19 01:31:00;;;;;;;6.40;5.80;;;;;;;21.47;67.56;99990.16;107298;1254;60499;-38
2023/08/19 01:33:30;;;;;;;9.10;6.60;;;;;;;21.47;67.90;99993.23;107305;1254;72578;-39
2023/08/19 01:36:16;;;;;;;10.40;6.70;;;;;;;21.45;67.97;99992.30;107261;1254;66590;-39
2023/08/19 01:38:51;;;;;;;7.40;6.40;;;;;;;21.43;68.04;99996.77;107405;1258;72730;-38
2023/08/19 01:41:19;;;;;;;8.30;6.80;;;;;;;21.41;67.84;99994.19;107306;1257;60412;-38
2023/08/19 01:43:46;;;;;;;9.80;6.30;;;;;;;21.37;67.63;99989.04;107298;1254;60351;-39
2023/08/19 01:46:14;;;;;;;7.20;6.10;;;;;;;21.39;68.14;99987.61;107285;1254;73853;-39
2023/08/19 01:48:42;;;;;;;7.60;6.30;;;;;;;21.42;68.43;99984.73;107305;1254;66807;-39
2023/08/19 01:51:10;;;;;;;10.80;6.30;;;;;;;21.42;68.57;99985.67;107352;1257;71424;-39
2023/08/19 01:53:37;;;;;;;9.60;6.60;;;;;;;21.39;68.62;99983.03;107277;1254;60393;-38
2023/08/19 01:56:06;;;;;;;8.90;6.70;;;;;;;21.36;68.38;99989.14;107327;1254;60975;-39
2023/08/19 01:58:34;;;;;;;10.30;6.60;;;;;;;21.33;67.86;99988.73;107351;1255;72582;-39
2023/08/19 02:01:02;;;;;;;9.20;7.50;;;;;;;21.29;67.62;99988.23;107225;1255;66610;-39
2023/08/19 02:03:29;;;;;;;10.30;7.10;;;;;;;21.25;67.43;99989.00;107242;1254;73245;-39
2023/08/19 02:05:57;;;;;;;10.80;6.90;;;;;;;21.24;67.25;99984.60;107138;1260;60439;-38
2023/08/19 02:08:24;;;;;;;6.60;6.00;;;;;;;21.26;67.22;99988.90;107334;1254;60344;-39
2023/08/19 02:10:53;;;;;;;8.60;6.70;;;;;;;21.24;67.16;99990.66;107403;1254;72589;-39
2023/08/19 02:13:21;;;;;;;8.60;6.80;;;;;;;21.20;67.22;99992.84;107342;1255;66495;-39
2023/08/19 02:15:48;;;;;;;11.80;7.20;;;;;;;21.15;67.10;99990.86;107252;1253;72711;-38
2023/08/19 02:18:17;;;;;;;10.80;7.70;;;;;;;21.06;66.81;99993.80;107203;1254;60431;-38
2023/08/19 02:20:48;;;;;;;10.50;7.40;;;;;;;20.98;66.58;99997.45;107313;1254;60485;-38
2023/08/19 02:23:16;;;;;;;11.90;6.90;;;;;;;20.93;66.48;99998.94;107169;1260;73891;-38
2023/08/19 02:25:43;;;;;;;9.60;6.70;;;;;;;20.91;66.13;99998.10;107203;1254;66286;-39
2023/08/19 02:28:11;;;;;;;8.90;7.20;;;;;;;20.90;66.25;99998.35;107271;1259;72686;-40
2023/08/19 02:30:40;;;;;;;9.80;6.30;;;;;;;20.87;67.04;100002.48;107284;1255;60501;-39
2023/08/19 02:33:07;;;;;;;10.70;7.40;;;;;;;20.78;67.57;100004.86;107316;1254;60354;-40
2023/08/19 02:35:35;;;;;;;8.90;7.00;;;;;;;20.73;68.13;100005.48;107270;1259;72666;-40
2023/08/19 02:38:03;;;;;;;11.70;7.20;;;;;;;20.68;68.09;100005.45;107346;1254;68083;-40
2023/08/19 02:40:31;;;;;;;8.00;6.90;;;;;;;20.68;67.87;100009.16;107271;1260;72751;-40
2023/08/19 02:43:00;;;;;;;10.60;7.20;;;;;;;20.68;67.25;100008.38;107297;1255;60488;-40
2023/08/19 02:45:28;;;;;;;8.80;7.00;;;;;;;20.64;67.08;100006.69;107310;1254;60479;-40
2023/08/19 02:47:55;;;;;;;10.50;7.40;;;;;;;20.60;66.86;100007.92;107294;1254;72712;-40
2023/08/19 02:50:23;;;;;;;8.40;7.30;;;;;;;20.56;66.65;100009.23;107250;1260;68368;-40
2023/08/19 02:52:51;;;;;;;9.70;7.60;;;;;;;20.52;66.74;100006.91;107283;1254;72687;-39
2023/08/19 02:55:18;;;;;;;10.90;8.70;;;;;;;20.49;66.85;100008.98;107272;1261;60415;-40
2023/08/19 02:57:46;;;;;;;12.80;8.00;;;;;;;20.46;66.72;100010.53;107349;1255;60548;-40
2023/08/19 03:00:15;;;;;;;12.50;7.20;;;;;;;20.46;66.78;100013.59;107272;1255;74041;-40
2023/08/19 03:02:46;;;;;;;9.80;7.20;;;;;;;20.46;66.70;100016.11;107248;1254;67992;-40
2023/08/19 03:05:14;;;;;;;11.00;7.50;;;;;;;20.42;66.67;100017.82;107293;1261;71542;-40
2023/08/19 03:07:42;;;;;;;10.80;7.60;;;;;;;20.38;66.82;100017.45;107279;1255;60926;-40
2023/08/19 03:10:10;;;;;;;10.00;7.60;;;;;;;20.33;66.81;100016.40;107230;1254;60285;-39
2023/08/19 03:12:38;;;;;;;12.30;7.80;;;;;;;20.28;66.97;100017.67;107286;1254;73837;-40
2023/08/19 03:15:06;;;;;;;12.40;7.70;;;;;;;20.26;67.16;100018.02;107221;1254;67894;-40
2023/08/19 03:17:34;;;;;;;7.70;6.70;;;;;;;20.28;67.12;100014.14;107402;1254;72663;-40
2023/08/19 03:20:03;;;;;;;10.90;7.50;;;;;;;20.31;67.03;100011.86;107317;1260;60446;-39
2023/08/19 03:22:30;;;;;;;11.70;7.90;;;;;;;20.32;67.21;100007.92;107303;1262;60312;-40
2023/08/19 03:24:58;;;;;;;13.10;8.50;;;;;;;20.30;67.06;100009.87;107349;1254;73020;-40
2023/08/19 03:27:25;;;;;;;10.20;8.00;;;;;;;20.27;67.12;100011.86;107344;1254;67969;-40
2023/08/19 03:29:53;;;;;;;11.50;8.60;;;;;;;20.26;67.24;100009.98;107281;1260;72762;-39
2023/08/19 03:32:21;;;;;;;12.00;8.50;;;;;;;20.22;67.29;100008.06;107339;1260;60536;-40
2023/08/19 03:34:48;;;;;;;11.40;7.90;;;;;;;20.21;67.50;100004.30;107276;1254;60504;-40
2023/08/19 03:37:17;;;;;;;9.70;6.90;;;;;;;20.23;67.65;100002.47;107378;1254;72593;-40
2023/08/19 03:39:44;;;;;;;8.80;7.20;;;;;;;20.25;67.76;100002.13;107334;1260;67602;-40
2023/08/19 03:42:12;;;;;;;9.60;7.60;;;;;;;20.25;68.16;100003.70;107325;1254;72692;-40
2023/08/19 03:44:39;;;;;;;10.10;7.40;;;;;;;20.25;68.18;100002.83;107293;1260;60415;-40
2023/08/19 03:47:13;;;;;;;10.00;8.40;;;;;;;20.27;68.47;100006.36;107331;1254;60491;-40
2023/08/19 03:49:41;;;;;;;10.70;7.10;;;;;;;20.29;68.64;100004.91;107325;1255;73857;-40
2023/08/19 03:52:08;;;;;;;11.50;8.70;;;;;;;20.37;68.87;100004.00;107295;1261;66627;-40
2023/08/19 03:54:36;;;;;;;14.60;13.10;;;;;;;20.43;69.02;100007.56;107283;1255;71428;-40
2023/08/19 03:57:03;;;;;;;14.40;12.70;;;;;;;20.45;69.16;100009.35;107246;1255;60381;-40
2023/08/19 03:59:32;;;;;;;14.70;13.20;;;;;;;20.46;69.40;100008.31;107320;1254;60369;-40
2023/08/19 04:02:00;;;;;;;13.20;11.00;;;;;;;20.50;69.43;100009.05;107337;1254;71557;-40
2023/08/19 04:04:28;;;;;;;12.30;10.40;;;;;;;20.55;69.34;100007.81;107293;1259;66604;-40
2023/08/19 04:06:55;;;;;;;12.80;10.00;;;;;;;20.62;69.06;100007.51;107302;1254;71488;-40
2023/08/19 04:09:23;;;;;;;11.50;8.50;;;;;;;20.71;69.06;100010.86;107207;1260;60184;-40
2023/08/19 04:11:51;;;;;;;11.40;8.40;;;;;;;20.77;69.21;100010.09;107170;1258;60402;-40
2023/08/19 04:14:19;;;;;;;12.00;8.40;;;;;;;20.81;68.98;100013.41;107247;1254;72675;-40
2023/08/19 04:16:47;;;;;;;9.70;8.40;;;;;;;20.86;68.96;100016.36;107271;1257;66439;-40
2023/08/19 04:19:15;;;;;;;9.70;7.90;;;;;;;20.90;68.93;100012.36;107270;1257;70372;-40
2023/08/19 04:21:42;;;;;;;9.10;7.30;;;;;;;20.99;69.02;100016.09;107347;1256;60409;-40
2023/08/19 04:24:12;;;;;;;9.60;7.60;;;;;;;21.10;68.93;100013.35;107283;1254;60392;-40
2023/08/19 04:26:39;;;;;;;9.10;6.80;;;;;;;21.17;68.89;100009.44;107449;1260;73864;-40
2023/08/19 04:29:07;;;;;;;10.50;7.50;;;;;;;21.24;69.05;100007.20;107206;1257;67579;-40
2023/08/19 04:31:35;;;;;;;11.90;7.60;;;;;;;21.31;69.05;100009.48;107234;1257;71449;-40
2023/08/19 04:34:04;;;;;;;8.40;7.30;;;;;;;21.39;68.89;100009.52;107295;1256;60431;-40
2023/08/19 04:36:31;;;;;;;11.60;7.40;;;;;;;21.45;69.04;100007.68;107225;1260;60363;-40
2023/08/19 04:38:59;;;;;;;9.20;7.20;;;;;;;21.55;68.97;100005.23;107204;1254;73100;-40
2023/08/19 04:41:27;;;;;;;11.60;7.70;;;;;;;21.69;68.91;100006.13;107289;1260;66316;-40
2023/08/19 04:43:55;;;;;;;8.30;7.10;;;;;;;21.79;68.93;100004.71;107312;1260;71482;-40
2023/08/19 04:46:24;;;;;;;9.00;7.70;;;;;;;21.87;69.05;100007.56;107287;1254;60569;-40
2023/08/19 04:48:52;;;;;;;8.60;7.10;;;;;;;21.95;69.12;100002.02;107250;1257;60543;-40
2023/08/19 04:51:20;;;;;;;9.40;7.60;;;;;;;22.04;69.27;100007.16;107360;1257;73093;-40
2023/08/19 04:53:48;;;;;;;9.50;7.00;;;;;;;22.17;69.02;100007.64;107308;1254;66343;-39
2023/08/19 04:56:15;;;;;;;9.20;7.50;;;;;;;22.30;68.74;100009.52;107310;1254;73131;-39
2023/08/19 04:58:45;;;;;;;;;;;;;;;22.39;68.41;100006.42;107111;1258;60252;-39
2023/08/19 05:01:13;;;;;;;9.20;7.70;;;;;;;22.47;68.26;100006.27;107199;1260;60485;-39
2023/08/19 05:03:43;;;;;;;9.60;8.00;;;;;;;22.55;68.17;100006.98;107233;1260;73925;-39
2023/08/19 05:06:11;;;;;;;8.70;7.80;;;;;;;22.67;67.89;100005.04;107150;1257;67038;-39
2023/08/19 05:08:41;;;;;;;9.60;7.30;;;;;;;22.74;67.87;100007.04;107150;1260;71414;-39
2023/08/19 05:11:08;;;;;;;7.60;6.80;;;;;;;22.86;67.59;100008.37;107137;1254;61711;-39
2023/08/19 05:13:36;;;;;;;8.30;7.30;;;;;;;23.00;67.77;100009.75;107346;1260;60435;-39
2023/08/19 05:16:06;;;;;;;9.30;7.00;;;;;;;23.10;67.37;100008.02;107233;1260;72678;-39
2023/08/19 05:18:33;;;;;;;8.10;7.20;;;;;;;23.19;67.22;100006.31;107237;1255;66293;-38
2023/08/19 05:21:02;;;;;;;11.70;7.10;;;;;;;23.31;66.92;100006.61;107203;1257;71866;-39
2023/08/19 05:23:30;;;;;;;8.00;6.90;;;;;;;23.41;66.41;100003.45;107106;1257;60412;-39
2023/08/19 05:25:59;;;;;;;9.80;7.40;;;;;;;23.50;66.19;100008.25;107201;1255;60385;-39
2023/08/19 05:28:26;;;;;;;7.30;6.60;;;;;;;23.61;66.16;100008.38;107270;1256;72611;-38
2023/08/19 05:30:54;;;;;;;9.00;7.40;;;;;;;23.74;65.81;100005.36;107209;1257;67625;-38
2023/08/19 05:33:22;;;;;;;8.70;7.70;;;;;;;23.84;65.43;100004.91;107197;1257;73113;-38
2023/08/19 05:35:49;;;;;;;9.10;7.90;;;;;;;23.92;65.38;100007.70;107198;1257;60402;-38
2023/08/19 05:38:17;;;;;;;11.80;7.30;;;;;;;24.01;65.19;100009.05;107307;1260;60335;-39
2023/08/19 05:40:44;;;;;;;10.50;7.40;;;;;;;24.10;64.97;100006.92;107286;1254;73898;-39
2023/08/19 05:43:12;;;;;;;9.00;7.20;;;;;;;24.18;64.78;100006.88;107320;1255;67576;-39
2023/08/19 05:45:48;;;;;;;9.20;7.00;;;;;;;24.28;64.67;100005.59;107289;1260;71449;-41
2023/08/19 05:48:19;;;;;;;8.00;7.00;;;;;;;24.41;64.60;100005.73;107106;1262;62649;-40
2023/08/19 05:50:50;;;;;;;10.40;6.40;;;;;;;24.53;64.04;100005.86;107188;1257;62170;-40
2023/08/19 05:53:18;;;;;;;8.00;6.90;;;;;;;24.64;63.66;100009.59;107306;1255;73845;-40
2023/08/19 05:55:47;;;;;;;8.70;7.10;;;;;;;24.74;63.09;100011.61;107192;1258;67788;-39
2023/08/19 05:58:15;;;;;;;10.60;7.60;;;;;;;24.84;63.05;100010.14;107085;1256;71441;-39
2023/08/19 06:00:43;;;;;;;8.80;7.20;;;;;;;24.93;63.04;100011.95;107201;1256;60649;-40
2023/08/19 06:03:11;;;;;;;8.40;7.00;;;;;;;25.02;62.10;100013.89;107173;1257;60296;-40
2023/08/19 06:05:38;;;;;;;8.20;6.80;;;;;;;25.10;60.70;100015.82;107235;1259;74194;-40
2023/08/19 06:08:06;;;;;;;9.20;7.00;;;;;;;25.17;60.23;100014.16;107233;1258;67593;-40
2023/08/19 06:10:34;;;;;;;8.60;6.80;;;;;;;25.25;60.00;100014.17;107174;1256;72680;-40
2023/08/19 06:13:02;;;;;;;9.90;7.30;;;;;;;25.32;59.72;100015.77;107233;1254;60508;-40
2023/08/19 06:15:29;;;;;;;11.80;7.20;;;;;;;25.39;59.64;100015.95;107288;1257;59659;-40
2023/08/19 06:17:57;;;;;;;10.60;7.20;;;;;;;25.46;59.65;100013.27;107191;1257;74354;-40
2023/08/19 06:20:25;;;;;;;16.30;7.90;;;;;;;25.53;59.76;100013.52;107291;1254;67930;-39
2023/08/19 06:22:57;;;;;;;12.00;7.40;;;;;;;25.61;59.40;100012.74;107137;1254;72840;-40
2023/08/19 06:25:25;;;;;;;12.80;7.40;;;;;;;25.68;58.84;100014.98;107132;1258;61452;-39
2023/08/19 06:27:52;;;;;;;8.40;7.40;;;;;;;25.75;58.98;100016.33;107289;1254;60303;-39
2023/08/19 06:30:20;;;;;;;10.20;7.40;;;;;;;25.82;58.97;100014.98;107196;1260;73915;-40
2023/08/19 06:32:48;;;;;;;8.50;6.70;;;;;;;25.90;58.68;100014.27;107232;1254;67875;-41
2023/08/19 06:35:17;;;;;;;7.30;6.50;;;;;;;25.94;58.18;100014.02;107382;1256;72746;-40
2023/08/19 06:37:50;;;;;;;8.10;7.00;;;;;;;26.03;58.29;100021.02;107235;1258;60472;-39
2023/08/19 06:40:19;;;;;;;9.00;7.00;;;;;;;26.12;58.08;100023.92;107281;1259;60105;-38
2023/08/19 06:42:48;;;;;;;10.20;7.10;;;;;;;26.20;57.83;100025.08;107284;1254;72607;-38
2023/08/19 06:45:19;;;;;;;8.50;7.50;;;;;;;26.26;57.41;100029.56;107197;1254;66266;-40
2023/08/19 06:47:46;;;;;;;8.00;6.40;;;;;;;26.36;57.00;100033.02;107220;1260;73071;-39
2023/08/19 06:50:15;;;;;;;8.60;7.00;;;;;;;26.45;56.56;100035.17;107116;1257;60434;-38
2023/08/19 06:52:44;;;;;;;7.70;6.80;;;;;;;26.54;56.14;100040.44;107439;1254;60371;-40
2023/08/19 06:55:13;;;;;;;;;;;;;;;26.62;55.84;100038.22;107262;1259;74894;-40
2023/08/19 06:57:49;;;;;;;8.40;6.40;;;;;;;26.70;55.64;100035.36;109174;1257;66808;-40
2023/08/19 07:00:17;;;;;;;8.20;7.10;;;;;;;26.80;55.69;100034.61;109054;1253;72687;-41
2023/08/19 07:02:44;;;;;;;7.40;6.70;;;;;;;26.91;55.38;100037.33;109153;1254;60078;-41
2023/08/19 07:05:15;;;;;;;12.40;6.70;;;;;;;27.02;55.03;100040.89;109134;1254;60181;-41
2023/08/19 07:07:47;;;;;;;8.60;6.80;;;;;;;27.15;55.06;100039.14;107388;1260;72634;-39
2023/08/19 07:10:20;;;;;;;9.50;7.00;;;;;;;27.28;54.63;100042.69;107361;1254;66498;-40
2023/08/19 07:12:48;;;;;;;9.40;6.70;;;;;;;27.40;54.16;100041.70;107315;1254;72677;-40
2023/08/19 07:15:16;;;;;;;12.60;7.40;;;;;;;27.50;54.11;100039.55;107273;1254;60476;-40
2023/08/19 07:17:46;;;;;;;8.20;6.50;;;;;;;27.62;54.16;100039.53;107348;1254;60274;-40
2023/08/19 07:20:18;;;;;;;9.00;6.50;;;;;;;27.74;53.70;100037.15;107343;1254;73842;-40
2023/08/19 07:22:47;;;;;;;9.10;6.60;;;;;;;27.87;54.10;100043.15;107289;1254;67560;-40
2023/08/19 07:25:15;;;;;;;9.00;6.50;;;;;;;27.97;53.70;100043.59;107282;1259;72538;-40
2023/08/19 07:27:43;;;;;;;11.00;7.10;;;;;;;28.08;53.19;100043.80;107419;1253;60958;-41
2023/08/19 07:30:12;;;;;;;9.10;6.50;;;;;;;28.14;53.28;100047.15;107462;1259;60482;-40
2023/08/19 07:32:40;;;;;;;8.00;6.60;;;;;;;28.20;52.98;100042.52;107470;1254;73863;-40
2023/08/19 07:35:08;;;;;;;7.50;6.50;;;;;;;28.28;52.66;100044.02;107686;1254;67885;-40
2023/08/19 07:37:37;;;;;;;8.90;6.40;;;;;;;28.38;52.59;100036.32;107872;1254;72718;-40
2023/08/19 07:40:06;;;;;;;8.80;7.00;;;;;;;28.46;52.30;100037.56;107264;1254;186064;-40
2023/08/19 07:44:06;;;;;;;7.40;6.60;;;;;;;28.55;51.84;100041.05;103980;1293;600324;-39
2023/08/19 07:46:33;;;;;;;9.50;6.40;;;;;;;28.60;51.78;100037.98;106497;1269;59103;-40
2023/08/19 07:49:02;;;;;;;7.90;6.20;;;;;;;28.67;51.95;100036.61;106611;1265;60048;-40
2023/08/19 07:51:29;;;;;;;9.20;6.40;;;;;;;28.76;51.16;100038.07;106666;1266;72261;-40
2023/08/19 07:53:57;;;;;;;8.40;6.40;;;;;;;28.90;50.73;100033.79;106627;1266;67698;-40
2023/08/19 07:56:25;;;;;;;9.90;6.90;;;;;;;29.04;50.11;100032.94;106566;1267;72985;-40
2023/08/19 07:58:52;;;;;;;9.60;6.80;;;;;;;29.14;50.15;100032.99;106513;1266;170873;-40
2023/08/19 08:01:20;;;;;;;8.30;6.50;;;;;;;29.24;49.95;100032.46;106654;1264;60036;-39
2023/08/19 08:03:48;;;;;;;10.70;6.80;;;;;;;29.32;49.71;100033.53;106722;1264;72408;-39
2023/08/19 08:06:16;;;;;;;6.80;6.10;;;;;;;29.41;49.55;100034.85;106737;1266;67592;-40
2023/08/19 08:08:43;;;;;;;9.70;6.50;;;;;;;29.52;47.98;100036.17;106689;1264;72683;-40
2023/08/19 08:11:11;;;;;;;7.90;6.30;;;;;;;29.58;47.78;100030.73;106733;1265;59483;-40
2023/08/19 08:13:38;;;;;;;8.30;5.70;;;;;;;29.60;47.53;100026.81;106740;1265;59462;-40
2023/08/19 08:16:06;;;;;;;8.20;6.30;;;;;;;29.57;47.63;100029.30;106745;1264;73513;-40
2023/08/19 08:18:34;;;;;;;9.90;6.50;;;;;;;29.58;48.20;100024.02;106723;1268;67645;-40
2023/08/19 08:21:02;;;;;;;8.30;6.30;;;;;;;29.57;47.33;100022.89;106616;1264;71409;-40
2023/08/19 08:23:30;;;;;;;9.10;6.20;;;;;;;29.55;47.29;100021.49;106505;1264;60070;-40
2023/08/19 08:25:57;;;;;;;8.60;6.80;;;;;;;29.53;46.86;100016.37;106572;1268;59455;-40
2023/08/19 08:28:25;;;;;;;9.20;6.50;;;;;;;29.53;46.89;100013.47;106561;1264;71785;-40
2023/08/19 08:30:53;;;;;;;8.30;6.50;;;;;;;29.57;47.45;100014.34;106586;1264;67901;-40
2023/08/19 08:33:20;;;;;;;10.30;6.50;;;;;;;29.70;47.46;100012.75;106511;1263;71472;-40
2023/08/19 08:35:48;;;;;;;9.80;6.90;;;;;;;29.87;47.25;100011.77;107260;1263;59663;-40
2023/08/19 08:38:16;;;;;;;7.40;6.50;;;;;;;30.04;46.57;100010.27;106663;1264;59478;-40
2023/08/19 08:40:43;;;;;;;8.60;6.20;;;;;;;30.22;46.56;100005.79;106761;1264;72469;-40
2023/08/19 08:43:11;;;;;;;8.20;6.00;;;;;;;30.35;46.29;100008.69;106710;1263;67747;-40
2023/08/19 08:45:39;;;;;;;7.30;6.20;;;;;;;30.41;45.05;100005.29;106701;1264;72742;-40
2023/08/19 08:48:07;;;;;;;6.50;5.40;;;;;;;30.40;44.32;100004.17;106737;1266;60044;-40
2023/08/19 08:50:35;;;;;;;7.90;6.00;;;;;;;30.37;43.86;99999.31;106977;1261;60019;-40
2023/08/19 08:53:02;;;;;;;8.30;6.10;;;;;;;30.37;44.66;100002.12;106924;1261;72138;-41
2023/08/19 08:55:30;;;;;;;7.70;5.30;;;;;;;30.45;43.86;100002.24;106914;1260;66290;-41
2023/08/19 08:57:58;;;;;;;6.90;6.20;;;;;;;30.56;43.67;100004.55;106913;1262;72758;-41
2023/08/19 09:00:25;;;;;;;8.80;5.50;;;;;;;30.69;44.29;100003.96;106951;1260;60030;-41
2023/08/19 09:02:54;;;;;;;13.80;5.60;;;;;;;30.81;43.19;100000.92;106972;1262;61561;-41
2023/08/19 09:05:21;;;;;;;9.00;6.00;;;;;;;30.87;43.29;100004.94;106797;1260;73079;-41
2023/08/19 09:07:49;;;;;;;9.80;5.60;;;;;;;30.85;43.60;100003.73;106728;1260;67584;-41
2023/08/19 09:10:18;;;;;;;7.50;5.80;;;;;;;30.80;43.52;100005.28;107301;1260;71442;-40
2023/08/19 09:12:49;;;;;;;7.80;6.00;;;;;;;30.79;43.27;100002.88;106958;1260;59621;-40
2023/08/19 09:15:17;;;;;;;11.50;6.20;;;;;;;30.82;43.30;100001.66;107073;1260;60027;-40
2023/08/19 09:17:45;;;;;;;11.30;6.20;;;;;;;30.92;43.44;99995.61;106957;1260;72871;-39
2023/08/19 09:20:14;;;;;;;11.80;5.90;;;;;;;31.01;42.44;99991.05;106939;1260;67581;-40
2023/08/19 09:22:42;;;;;;;9.10;5.50;;;;;;;31.05;42.44;99990.50;106770;1261;72647;-39
2023/08/19 09:25:14;;;;;;;12.20;6.00;;;;;;;31.09;42.27;99989.01;106881;1260;60078;-40
2023/08/19 09:27:42;;;;;;;6.30;5.40;;;;;;;31.20;42.91;99984.08;106843;1265;59933;-40
2023/08/19 09:30:33;;;;;;;7.00;5.80;;;;;;;31.27;42.34;99985.11;106858;1263;71783;-39
2023/08/19 09:33:01;;;;;;;6.90;6.10;;;;;;;31.27;42.30;99982.86;106920;1262;68656;-39
2023/08/19 09:35:40;;;;;;;8.60;5.70;;;;;;;31.19;42.65;99986.26;106844;1260;71867;-40
2023/08/19 09:38:26;;;;;;;6.70;5.30;;;;;;;31.06;42.78;99987.08;106781;1260;60128;-40
2023/08/19 09:41:01;;;;;;;10.10;5.50;;;;;;;31.02;42.69;99986.10;106861;1262;60142;-40
2023/08/19 09:43:29;;;;;;;6.40;5.60;;;;;;;31.08;41.71;99981.64;106811;1261;73041;-39
2023/08/19 09:46:02;;;;;;;7.60;5.30;;;;;;;31.23;40.91;99975.16;106840;1262;67594;-39
2023/08/19 09:48:30;;;;;;;7.10;5.20;;;;;;;31.43;40.43;99976.80;106939;1261;72728;-39
2023/08/19 09:50:58;;;;;;;9.10;5.30;;;;;;;31.61;40.23;99973.09;106831;1261;59487;-39
2023/08/19 09:53:28;;;;;;;7.60;5.60;;;;;;;31.79;39.48;99972.67;106821;1262;59564;-39
2023/08/19 09:55:57;;;;;;;6.20;5.40;;;;;;;31.98;38.64;99976.02;106824;1265;71840;-39
2023/08/19 09:58:25;;;;;;;9.40;5.60;;;;;;;32.09;38.45;99973.30;106871;1262;67079;-40
2023/08/19 10:00:53;;;;;;;11.90;5.80;;;;;;;32.11;38.63;99972.69;106896;1262;72786;-40
2023/08/19 10:03:20;;;;;;;7.50;5.20;;;;;;;32.11;39.10;99971.41;106867;1263;59615;-40
2023/08/19 10:05:52;;;;;;;6.80;5.90;;;;;;;32.08;39.59;99964.52;106797;1260;59635;-40
2023/08/19 10:08:22;;;;;;;7.90;5.90;;;;;;;32.09;39.16;99963.86;106855;1260;73463;-40
2023/08/19 10:10:49;;;;;;;6.30;5.70;;;;;;;32.17;39.43;99960.16;106856;1260;66282;-40
2023/08/19 10:13:17;;;;;;;7.10;5.90;;;;;;;32.33;38.88;99957.02;106872;1263;72756;-40
2023/08/19 10:15:45;;;;;;;7.10;5.70;;;;;;;32.55;39.25;99956.16;106847;1262;60092;-40
2023/08/19 10:18:22;;;;;;;6.60;5.60;;;;;;;32.78;38.92;99954.20;106885;1260;60046;-40
2023/08/19 10:20:52;;;;;;;7.90;5.80;;;;;;;33.00;38.48;99944.58;106836;1260;73090;-40
2023/08/19 10:23:20;;;;;;;8.90;5.50;;;;;;;33.16;37.80;99947.31;106965;1265;69069;-40
2023/08/19 10:25:48;;;;;;;8.50;5.40;;;;;;;33.26;37.35;99947.14;106756;1261;73164;-39
2023/08/19 10:28:24;;;;;;;7.10;5.70;;;;;;;33.27;36.58;99944.29;106730;1261;60063;-39
2023/08/19 10:31:05;;;;;;;10.80;5.90;;;;;;;33.35;36.64;99941.17;106943;1263;60062;-40
2023/08/19 10:33:41;;;;;;;7.10;6.20;;;;;;;33.58;36.69;99946.92;106992;1260;73111;-40
2023/08/19 10:36:17;;;;;;;7.30;5.80;;;;;;;33.86;36.35;99949.79;106931;1262;67780;-40
2023/08/19 10:38:46;;;;;;;6.60;5.90;;;;;;;34.16;36.33;99947.29;106803;1263;73281;-40
2023/08/19 10:41:28;;;;;;;6.70;5.90;;;;;;;34.42;35.51;99946.85;106879;1260;60183;-40
2023/08/19 10:44:00;;;;;;;8.90;5.90;;;;;;;34.67;34.75;99945.65;106850;1260;60027;-41
2023/08/19 10:46:36;;;;;;;9.20;6.00;;;;;;;34.89;33.47;99943.48;106870;1261;73054;-41
2023/08/19 10:49:06;;;;;;;8.10;5.60;;;;;;;35.12;33.23;99943.77;106903;1260;66321;-41
2023/08/19 10:51:59;;;;;;;;;;;;;;;35.37;33.04;99934.67;106950;1263;71884;-41
2023/08/19 10:54:27;;;;;;;9.10;5.80;;;;;;;35.64;32.65;99938.23;106871;1260;60106;-41
2023/08/19 10:57:14;;;;;;;9.30;5.80;;;;;;;35.86;32.73;99934.94;106881;1260;59878;-41
2023/08/19 10:59:44;;;;;;;6.30;5.60;;;;;;;36.09;32.14;99932.46;106860;1260;71098;-40
2023/08/19 11:02:12;;;;;;;6.20;5.40;;;;;;;36.27;32.18;99933.77;106909;1262;66569;-41
2023/08/19 11:04:43;;;;;;;9.10;5.90;;;;;;;36.39;31.37;99935.27;106918;1260;72706;-41
2023/08/19 11:07:11;;;;;;;7.40;5.80;;;;;;;36.43;31.72;99938.89;106893;1262;60230;-41
2023/08/19 11:09:43;;;;;;;9.70;5.70;;;;;;;36.56;31.68;99934.23;106877;1262;60127;-41
2023/08/19 11:12:16;;;;;;;7.80;5.70;;;;;;;36.80;31.10;99937.61;106761;1260;73020;-41
2023/08/19 11:14:48;;;;;;;10.90;5.40;;;;;;;37.08;30.45;99929.75;106889;1262;67584;-41
2023/08/19 11:17:16;;;;;;;9.00;6.00;;;;;;;37.37;29.99;99925.71;106967;1264;72715;-41
2023/08/19 11:19:44;;;;;;;7.00;5.50;;;;;;;37.58;30.12;99923.95;106936;1266;59639;-41
2023/08/19 11:22:16;;;;;;;8.20;6.50;;;;;;;37.67;29.65;99917.16;106883;1262;59565;-41
2023/08/19 11:24:46;;;;;;;10.00;6.50;;;;;;;37.57;29.20;99919.98;106876;1260;73028;-41
2023/08/19 11:27:14;;;;;;;8.40;6.10;;;;;;;37.29;29.64;99917.98;106917;1260;66746;-41
2023/08/19 11:29:45;;;;;;;8.00;5.90;;;;;;;37.01;30.26;99918.20;107128;1256;72755;-41